Main page
METAR-TAF:

METAR-TAF

Airports :

Stockholm Arlanda Airport

Stockholm-Arlanda, Sweden

latitude: 59-39N, longitude: 017-57E, elevation: 38 m

Current weather observation

The report was made 40 minutes ago, at 06:20 UTC
Wind 19 kt from the Southwest
Temperature 14°C
Humidity 67%
Pressure 1003 hPa
Visibility 10 km or more
Few clouds at a height of 3600 ft
Broken clouds at a height of 5100 ft

METAR: ESSA 190620Z 23019KT 9999 FEW036 BKN051 14/08 Q1003 NOSIG

Time: 09:00 (07:00 UTC)

Forecast

The report was made 1 hour and 30 minutes ago, at 05:30 UTC
Forecast valid from 19 at 06 UTC to 20 at 06 UTC
Wind 18 kt from the West/Southwest with gusts up to 32 kt
Visibility 10 km or more
Broken clouds at a height of 4000 ft
Probability 40%
from 19 at 08 UTC to 19 at 12 UTC
Scattered clouds at a height of 4000 ft, Cumulonimbus.
Becoming
from 19 at 18 UTC to 19 at 20 UTC
Wind 12 kt from the West with gusts up to 22 kt

TAF: ESSA 190530Z 1906/2006 25018G32KT 9999 BKN040 PROB40 1908/1912 SCT040CB BECMG 1918/1920 26012G22KT

Weather observations and forecasts of more than 4000 airports (METAR and TAF reports).

The available stations are represented by yellow and red dots on the map.

Hover mouse over dot to see the name of the station.

Then click to see weather observations and forecasts.

To change the map : click on the green buttons with a black cross to zoom in, on the green button with a dash to zoom out, or on the green arrows for adjacent maps.


METAR-TAF: